Time;durP1;ratioP1;P1;durP2;ratioP2;P2;SDS_P1;SDS_P2;PMS_P1;PMS_P2;Temp;Humidity;BMP_temperature;BMP_pressure;BME280_temperature;BME280_humidity;BME280_pressure;Samples;Min_cycle;Max_cycle;Signal;HPM_P1;HPM_P2
2022/07/11 00:02:06;;;;;;;8.18;1.45;;;10.90;99.90;;;;;;5010671;28;20053;-82
2022/07/11 00:04:33;;;;;;;4.57;1.40;;;10.80;99.90;;;;;;5010494;28;20026;-81
2022/07/11 00:06:59;;;;;;;2.00;1.70;;;10.70;99.90;;;;;;5010519;28;20077;-79
2022/07/11 00:09:25;;;;;;;7.43;1.73;;;10.60;99.90;;;;;;5010582;28;20028;-80
2022/07/11 00:11:51;;;;;;;2.65;1.40;;;10.60;99.90;;;;;;5010220;28;20392;-82
2022/07/11 00:14:18;;;;;;;3.08;1.60;;;10.50;99.90;;;;;;5010928;28;20429;-83
2022/07/11 00:16:44;;;;;;;3.85;1.60;;;10.40;99.90;;;;;;5009271;28;20176;-82
2022/07/11 00:19:10;;;;;;;2.17;1.65;;;10.40;99.90;;;;;;5025500;28;20112;-81
2022/07/11 00:21:36;;;;;;;2.85;1.63;;;10.30;99.90;;;;;;5009677;28;20076;-82
2022/07/11 00:24:07;;;;;;;1.38;1.25;;;10.30;99.90;;;;;;5010170;28;20034;-80
2022/07/11 00:26:36;;;;;;;5.40;1.95;;;10.30;99.90;;;;;;5010400;28;20026;-80
2022/07/11 00:29:02;;;;;;;2.00;1.90;;;10.40;99.90;;;;;;5009873;28;20051;-82
2022/07/11 00:31:28;;;;;;;2.78;1.60;;;10.30;99.90;;;;;;5009133;28;20018;-81
2022/07/11 00:33:54;;;;;;;3.80;1.75;;;10.30;99.90;;;;;;5009783;28;20030;-83
2022/07/11 00:36:20;;;;;;;11.98;1.73;;;10.30;99.90;;;;;;5007566;28;20370;-82
2022/07/11 00:38:46;;;;;;;12.43;1.70;;;10.20;99.90;;;;;;5008338;28;20330;-80
2022/07/11 00:41:12;;;;;;;2.40;1.77;;;10.20;99.90;;;;;;5008905;28;20129;-82
2022/07/11 00:43:39;;;;;;;3.70;1.55;;;10.20;99.90;;;;;;5008655;28;20064;-80
2022/07/11 00:46:07;;;;;;;1.50;1.40;;;10.10;99.90;;;;;;5009385;28;20030;-81
2022/07/11 00:48:33;;;;;;;1.60;1.50;;;10.00;99.90;;;;;;5011855;28;20148;-79
2022/07/11 00:51:02;;;;;;;7.15;1.58;;;10.10;99.90;;;;;;5024245;28;20026;-81
2022/07/11 00:53:28;;;;;;;2.67;1.45;;;10.00;99.90;;;;;;5026245;28;20029;-81
2022/07/11 00:55:55;;;;;;;1.50;1.40;;;9.90;99.90;;;;;;5027914;28;20068;-82
2022/07/11 00:58:22;;;;;;;4.78;1.52;;;9.80;99.90;;;;;;5027963;28;20014;-83
2022/07/11 01:00:48;;;;;;;7.97;1.60;;;9.80;99.90;;;;;;5024318;28;20026;-81
2022/07/11 01:03:14;;;;;;;6.95;1.73;;;9.80;99.90;;;;;;5021760;28;20025;-82
2022/07/11 01:05:40;;;;;;;3.60;1.40;;;9.80;99.90;;;;;;5023764;28;20018;-81
2022/07/11 01:08:05;;;;;;;4.43;1.92;;;9.70;99.90;;;;;;5020663;28;20527;-81
2022/07/11 01:10:32;;;;;;;2.58;1.77;;;9.70;99.90;;;;;;5014087;28;20014;-81
2022/07/11 01:12:58;;;;;;;2.40;1.60;;;9.70;99.90;;;;;;5013324;28;20034;-82
2022/07/11 01:15:26;;;;;;;1.75;1.55;;;9.60;99.90;;;;;;5012584;28;20018;-81
2022/07/11 01:17:54;;;;;;;3.38;1.73;;;9.60;99.90;;;;;;5013677;28;20026;-80
2022/07/11 01:20:22;;;;;;;6.00;1.35;;;9.60;99.90;;;;;;5013200;28;20030;-81
2022/07/11 01:22:52;;;;;;;4.10;1.80;;;9.50;99.90;;;;;;5013507;28;20452;-79
2022/07/11 01:25:31;;;;;;;4.43;1.60;;;9.40;99.90;;;;;;5013298;28;20022;-81
2022/07/11 01:28:04;;;;;;;5.03;1.83;;;9.30;99.90;;;;;;5013455;28;20033;-81
2022/07/11 01:30:31;;;;;;;8.20;1.87;;;9.40;99.90;;;;;;5012274;28;20095;-80
2022/07/11 01:32:58;;;;;;;1.60;1.50;;;9.40;99.90;;;;;;5013128;28;20022;-81
2022/07/11 01:35:24;;;;;;;1.70;1.60;;;9.40;99.90;;;;;;5011560;28;20022;-81
2022/07/11 01:37:50;;;;;;;9.07;1.88;;;9.40;99.90;;;;;;5013009;28;20046;-81
2022/07/11 01:40:16;;;;;;;8.13;1.50;;;9.30;99.90;;;;;;5012451;28;20033;-81
2022/07/11 01:42:42;;;;;;;7.10;1.50;;;9.30;99.90;;;;;;5011738;28;20073;-81
2022/07/11 01:45:12;;;;;;;5.85;1.50;;;9.30;99.90;;;;;;5010970;28;20030;-81
2022/07/11 01:47:38;;;;;;;2.97;2.30;;;9.20;99.90;;;;;;5011774;28;20041;-81
2022/07/11 01:50:05;;;;;;;6.95;1.75;;;9.20;99.90;;;;;;5011183;28;20389;-81
2022/07/11 01:52:31;;;;;;;2.72;1.80;;;9.10;99.90;;;;;;5011755;28;20060;-81
2022/07/11 01:54:57;;;;;;;1.95;1.83;;;9.20;99.90;;;;;;5011964;28;20477;-80
2022/07/11 01:57:22;;;;;;;2.60;1.85;;;9.10;99.90;;;;;;5011310;28;20488;-81
2022/07/11 01:59:48;;;;;;;2.13;1.63;;;9.10;99.90;;;;;;5010600;28;20120;-82
2022/07/11 02:02:15;;;;;;;1.85;1.70;;;9.10;99.90;;;;;;5012012;28;20112;-81
2022/07/11 02:04:40;;;;;;;2.22;2.05;;;9.10;99.90;;;;;;5012257;28;20492;-82
2022/07/11 02:07:06;;;;;;;2.30;1.77;;;9.10;99.90;;;;;;5011550;28;20069;-81
2022/07/11 02:09:32;;;;;;;4.05;2.03;;;9.10;99.90;;;;;;5012122;28;20049;-82
2022/07/11 02:11:58;;;;;;;6.13;1.70;;;9.10;99.90;;;;;;5011892;28;20029;-80
2022/07/11 02:14:24;;;;;;;5.70;2.22;;;9.00;99.90;;;;;;5010435;28;20034;-81
2022/07/11 02:16:49;;;;;;;3.85;1.90;;;9.00;99.90;;;;;;5010664;28;20022;-82
2022/07/11 02:19:15;;;;;;;2.58;2.38;;;8.90;99.90;;;;;;5012204;28;20018;-81
2022/07/11 02:21:42;;;;;;;8.65;2.33;;;8.90;99.90;;;;;;5012276;28;20084;-80
2022/07/11 02:24:08;;;;;;;2.28;2.08;;;9.00;99.90;;;;;;5011200;28;20521;-82
2022/07/11 02:26:34;;;;;;;6.65;2.30;;;8.90;99.90;;;;;;5012272;28;20109;-81
2022/07/11 02:29:00;;;;;;;2.25;2.00;;;8.90;99.90;;;;;;5009999;28;20100;-82
2022/07/11 02:31:26;;;;;;;8.55;2.22;;;8.90;99.90;;;;;;5012113;28;20480;-80
2022/07/11 02:33:52;;;;;;;4.70;2.22;;;8.90;99.90;;;;;;5011293;28;20384;-80
2022/07/11 02:36:17;;;;;;;8.45;2.28;;;8.90;99.90;;;;;;5010708;28;20506;-80
2022/07/11 02:38:43;;;;;;;4.60;2.00;;;8.90;99.90;;;;;;5011796;28;20026;-82
2022/07/11 02:41:09;;;;;;;3.95;2.50;;;8.80;99.90;;;;;;5011362;28;20440;-82
2022/07/11 02:43:35;;;;;;;5.72;2.42;;;8.80;99.90;;;;;;5011797;28;20026;-82
2022/07/11 02:46:10;;;;;;;3.80;2.55;;;8.70;99.90;;;;;;5010090;28;20125;-81
2022/07/11 02:48:36;;;;;;;2.65;2.20;;;8.70;99.90;;;;;;5010803;28;20041;-80
2022/07/11 02:51:02;;;;;;;4.05;2.97;;;8.80;99.90;;;;;;5011737;28;20029;-80
2022/07/11 02:53:27;;;;;;;3.30;2.05;;;8.80;99.90;;;;;;5010398;28;20395;-81
2022/07/11 02:55:54;;;;;;;5.72;2.30;;;8.80;99.90;;;;;;5011041;28;20022;-80
2022/07/11 02:58:20;;;;;;;5.95;2.60;;;8.80;99.90;;;;;;5010127;28;20030;-81
2022/07/11 03:00:45;;;;;;;9.02;2.13;;;8.70;99.90;;;;;;5010318;28;20540;-82
2022/07/11 03:03:11;;;;;;;3.05;2.30;;;8.70;99.90;;;;;;5010589;28;20385;-82
2022/07/11 03:05:37;;;;;;;6.07;2.03;;;8.80;99.90;;;;;;5009593;28;20033;-81
2022/07/11 03:08:02;;;;;;;2.92;2.40;;;8.90;99.90;;;;;;5010566;28;20112;-81
2022/07/11 03:10:28;;;;;;;6.70;2.70;;;8.90;99.90;;;;;;5009571;28;20310;-81
2022/07/11 03:12:54;;;;;;;2.45;2.25;;;8.90;99.90;;;;;;5009499;28;20030;-82
2022/07/11 03:15:21;;;;;;;5.82;2.20;;;8.90;99.90;;;;;;5011301;28;20125;-83
2022/07/11 03:17:47;;;;;;;5.47;2.53;;;9.00;99.90;;;;;;5009812;28;20435;-82
2022/07/11 03:20:13;;;;;;;5.07;2.78;;;9.00;99.90;;;;;;5009390;28;20083;-79
2022/07/11 03:22:39;;;;;;;2.50;2.30;;;9.20;99.90;;;;;;5011167;28;20030;-82
2022/07/11 03:25:06;;;;;;;5.50;2.30;;;9.20;99.90;;;;;;5011672;28;20025;-82
2022/07/11 03:27:32;;;;;;;3.30;2.50;;;9.30;99.90;;;;;;5013610;28;20048;-82
2022/07/11 03:29:58;;;;;;;3.55;2.53;;;9.40;99.90;;;;;;5013612;28;20037;-81
2022/07/11 03:32:24;;;;;;;2.97;2.78;;;9.50;99.90;;;;;;5012224;28;20049;-81
2022/07/11 03:37:34;;;;;;;9.38;2.65;;;9.70;99.90;;;;;;5011487;28;20037;-81
2022/07/11 03:39:59;;;;;;;6.88;2.42;;;9.80;99.90;;;;;;5009819;28;20042;-81
2022/07/11 03:42:26;;;;;;;7.35;2.50;;;9.90;99.90;;;;;;5010488;28;20098;-81
2022/07/11 03:44:51;;;;;;;4.60;2.80;;;10.00;99.90;;;;;;5010341;28;20388;-81
2022/07/11 03:47:18;;;;;;;5.68;2.40;;;10.10;99.90;;;;;;5004514;28;20121;-82
2022/07/11 03:49:44;;;;;;;4.85;2.28;;;10.10;99.90;;;;;;5012388;28;20112;-81
2022/07/11 03:52:09;;;;;;;5.18;2.40;;;10.10;99.90;;;;;;5012640;28;20061;-79
2022/07/11 03:54:35;;;;;;;2.78;2.33;;;10.10;99.90;;;;;;5012840;28;20071;-82
2022/07/11 03:57:02;;;;;;;3.53;2.55;;;10.20;99.90;;;;;;5012821;28;20715;-81
2022/07/11 03:59:28;;;;;;;7.03;2.60;;;10.30;99.90;;;;;;5013284;28;20018;-82
2022/07/11 04:01:55;;;;;;;3.90;2.25;;;10.40;99.90;;;;;;5013431;28;20093;-79
2022/07/11 04:04:21;;;;;;;6.85;2.50;;;10.40;99.90;;;;;;5013676;28;20480;-82
2022/07/11 04:06:47;;;;;;;2.28;2.17;;;10.60;99.90;;;;;;5012998;28;20038;-80
2022/07/11 04:09:12;;;;;;;3.55;2.63;;;10.70;99.90;;;;;;5012068;28;20026;-82
2022/07/11 04:11:38;;;;;;;6.00;2.10;;;10.80;99.90;;;;;;5013042;28;20026;-80
2022/07/11 04:14:04;;;;;;;5.32;2.03;;;10.90;99.90;;;;;;5012507;28;20044;-82
2022/07/11 04:16:29;;;;;;;5.60;2.17;;;11.00;99.90;;;;;;5012642;28;20053;-80
2022/07/11 04:18:55;;;;;;;3.03;2.25;;;11.10;99.90;;;;;;5012858;28;20014;-80
2022/07/11 04:21:21;;;;;;;4.40;1.90;;;11.30;99.90;;;;;;5012489;28;20029;-82
2022/07/11 04:23:46;;;;;;;2.72;2.33;;;11.40;99.90;;;;;;5027721;28;20030;-80
2022/07/11 04:26:12;;;;;;;6.07;2.00;;;11.50;99.90;;;;;;5013830;28;20033;-80
2022/07/11 04:28:38;;;;;;;8.57;2.83;;;11.60;99.90;;;;;;5013224;28;20496;-81
2022/07/11 04:31:04;;;;;;;4.00;2.10;;;11.70;99.90;;;;;;5029816;28;20026;-82
2022/07/11 04:33:29;;;;;;;4.63;1.90;;;11.80;99.90;;;;;;5015040;28;20034;-82
2022/07/11 04:35:55;;;;;;;7.15;1.98;;;11.90;99.90;;;;;;5014339;28;20026;-81
2022/07/11 04:38:21;;;;;;;3.60;1.95;;;12.00;99.90;;;;;;5014174;28;20032;-81
2022/07/11 04:40:48;;;;;;;1.98;1.77;;;12.10;99.90;;;;;;5013415;28;20424;-80
2022/07/11 04:43:14;;;;;;;4.63;1.80;;;12.20;99.90;;;;;;5013957;28;20422;-80
2022/07/11 04:45:40;;;;;;;3.35;1.77;;;12.30;99.90;;;;;;5013740;28;20022;-81
2022/07/11 04:48:06;;;;;;;4.28;1.70;;;12.40;99.90;;;;;;5014025;28;20053;-81
2022/07/11 04:50:32;;;;;;;2.10;1.90;;;12.50;99.90;;;;;;5016316;28;20022;-83
2022/07/11 04:52:57;;;;;;;7.43;2.38;;;12.70;99.90;;;;;;5016639;28;20037;-80
2022/07/11 04:55:23;;;;;;;4.85;2.00;;;12.80;99.90;;;;;;5022092;28;20029;-82
2022/07/11 04:57:49;;;;;;;1.85;1.67;;;12.90;99.90;;;;;;5029034;28;20337;-79
2022/07/11 05:00:15;;;;;;;6.65;2.00;;;12.90;99.90;;;;;;5015945;28;20112;-83
2022/07/11 05:02:40;;;;;;;1.85;1.75;;;13.00;99.90;;;;;;5016834;28;20517;-80
2022/07/11 05:05:07;;;;;;;4.05;1.95;;;13.20;99.90;;;;;;5014245;28;20065;-81
2022/07/11 05:07:32;;;;;;;2.92;1.80;;;13.20;99.90;;;;;;5014306;28;20106;-81
2022/07/11 05:09:58;;;;;;;3.78;2.22;;;13.30;99.90;;;;;;5015773;28;20061;-80
2022/07/11 05:12:23;;;;;;;9.73;2.10;;;13.30;99.90;;;;;;5015635;28;20064;-80
2022/07/11 05:14:49;;;;;;;2.85;1.83;;;13.40;99.90;;;;;;5014324;28;20458;-80
2022/07/11 05:17:15;;;;;;;5.82;1.83;;;13.40;99.90;;;;;;5015470;28;20032;-83
2022/07/11 05:19:40;;;;;;;6.80;2.17;;;13.40;99.90;;;;;;5014427;28;20080;-81
2022/07/11 05:22:06;;;;;;;4.18;2.10;;;13.40;99.90;;;;;;5015170;28;20524;-82
2022/07/11 05:24:32;;;;;;;2.67;1.58;;;13.40;99.90;;;;;;5015491;28;20030;-82
2022/07/11 05:26:57;;;;;;;7.47;1.90;;;13.40;99.90;;;;;;5014082;28;20124;-81
2022/07/11 05:29:23;;;;;;;4.18;1.65;;;13.50;99.90;;;;;;5015216;28;20048;-82
2022/07/11 05:31:56;;;;;;;6.13;1.70;;;13.50;99.90;;;;;;5016543;28;20386;-83
2022/07/11 05:34:22;;;;;;;4.32;1.42;;;13.70;99.90;;;;;;5015396;28;20042;-81
2022/07/11 05:36:47;;;;;;;1.63;1.52;;;13.80;99.90;;;;;;5017144;28;20033;-82
2022/07/11 05:39:13;;;;;;;3.15;1.25;;;14.20;99.90;;;;;;5015575;28;20369;-81
2022/07/11 05:41:39;;;;;;;3.80;2.40;;;14.40;99.90;;;;;;5015755;28;20049;-80
2022/07/11 05:44:05;;;;;;;1.95;1.17;;;14.50;99.90;;;;;;5015430;28;20077;-82
2022/07/11 05:46:30;;;;;;;3.10;1.27;;;14.60;99.90;;;;;;5030482;28;20054;-80
2022/07/11 05:48:56;;;;;;;1.77;1.30;;;14.60;99.90;;;;;;5030993;28;20504;-83
2022/07/11 05:51:22;;;;;;;3.72;1.48;;;14.80;99.90;;;;;;5014144;28;20065;-83
2022/07/11 05:53:47;;;;;;;3.25;1.45;;;14.90;99.90;;;;;;5014163;28;20030;-82
2022/07/11 05:56:13;;;;;;;9.65;1.65;;;15.00;99.90;;;;;;5014354;28;20068;-81
2022/07/11 05:58:39;;;;;;;1.85;1.25;;;15.10;99.90;;;;;;5014750;28;20017;-80
2022/07/11 06:01:05;;;;;;;1.58;1.20;;;15.20;99.90;;;;;;5015080;28;20033;-80
2022/07/11 06:03:30;;;;;;;6.63;1.23;;;15.30;99.90;;;;;;5014251;28;20021;-81
2022/07/11 06:05:56;;;;;;;4.03;1.20;;;15.50;99.90;;;;;;5014673;28;20049;-81
2022/07/11 06:11:06;;;;;;;1.15;1.00;;;16.00;99.90;;;;;;5015477;28;20041;-81
2022/07/11 06:13:32;;;;;;;6.78;1.45;;;16.30;99.90;;;;;;5013906;28;20600;-83
2022/07/11 06:15:58;;;;;;;1.50;1.23;;;16.60;99.90;;;;;;5017573;28;20057;-81
2022/07/11 06:18:24;;;;;;;2.58;1.50;;;16.80;99.90;;;;;;5012731;28;20071;-81
2022/07/11 06:20:50;;;;;;;4.93;1.40;;;16.80;99.90;;;;;;5012467;28;20481;-81
2022/07/11 06:23:16;;;;;;;2.28;1.30;;;16.80;99.90;;;;;;5012470;28;20028;-82
2022/07/11 06:25:42;;;;;;;3.90;1.50;;;16.70;99.90;;;;;;5011045;28;20029;-80
2022/07/11 06:28:07;;;;;;;5.95;1.40;;;16.60;99.90;;;;;;5012342;28;20022;-81
2022/07/11 06:30:34;;;;;;;3.42;1.42;;;16.40;99.90;;;;;;5011857;28;20029;-82
2022/07/11 06:33:00;;;;;;;4.32;1.42;;;16.20;99.90;;;;;;5012375;28;20018;-81
2022/07/11 06:35:26;;;;;;;2.78;1.30;;;16.20;99.90;;;;;;5012170;28;20092;-81
2022/07/11 06:37:52;;;;;;;2.15;1.20;;;16.20;99.90;;;;;;5011895;28;20029;-80
2022/07/11 06:40:18;;;;;;;3.80;1.55;;;16.40;99.90;;;;;;5010775;28;20034;-79
2022/07/11 06:42:44;;;;;;;2.30;1.10;;;16.40;99.90;;;;;;5013679;28;20030;-82
2022/07/11 06:45:10;;;;;;;1.88;1.20;;;16.20;99.70;;;;;;5014036;28;20073;-82
2022/07/11 06:47:36;;;;;;;1.85;1.60;;;16.30;99.90;;;;;;5029351;28;20056;-82
2022/07/11 06:50:02;;;;;;;2.72;1.27;;;16.30;99.90;;;;;;5013181;28;20495;-81
2022/07/11 06:52:28;;;;;;;2.35;1.40;;;16.50;99.90;;;;;;5013730;28;20040;-82
2022/07/11 06:54:54;;;;;;;1.80;1.20;;;16.60;99.80;;;;;;5014493;28;20034;-80
2022/07/11 06:57:19;;;;;;;3.63;1.20;;;16.70;99.90;;;;;;5014286;28;20076;-80
2022/07/11 06:59:45;;;;;;;2.63;1.05;;;16.70;99.90;;;;;;5011515;28;20095;-82
2022/07/11 07:02:11;;;;;;;1.25;1.00;;;16.80;99.60;;;;;;5011358;28;20072;-81
2022/07/11 07:04:36;;;;;;;6.07;1.40;;;17.00;99.90;;;;;;5011737;28;20026;-80
2022/07/11 07:07:03;;;;;;;4.57;1.40;;;16.90;98.30;;;;;;5010398;28;20109;-82
2022/07/11 07:09:29;;;;;;;3.53;1.35;;;17.00;99.90;;;;;;5011774;28;20124;-82
2022/07/11 07:11:55;;;;;;;4.93;1.30;;;17.20;98.80;;;;;;5011716;28;20117;-81
2022/07/11 07:14:21;;;;;;;6.63;1.20;;;17.40;99.00;;;;;;5011389;28;20525;-82
2022/07/11 07:16:47;;;;;;;8.23;1.35;;;17.40;99.20;;;;;;5011151;28;20109;-82
2022/07/11 07:19:13;;;;;;;4.60;1.55;;;17.40;97.60;;;;;;5010998;28;20444;-81
2022/07/11 07:21:39;;;;;;;3.80;1.38;;;17.50;98.40;;;;;;5011364;28;20036;-80
2022/07/11 07:24:05;;;;;;;5.15;1.63;;;17.60;97.90;;;;;;5011389;28;20022;-82
2022/07/11 07:26:31;;;;;;;4.57;1.40;;;17.50;96.20;;;;;;5010944;28;20392;-81
2022/07/11 07:28:57;;;;;;;3.50;1.10;;;17.60;96.90;;;;;;5009511;28;20026;-82
2022/07/11 07:31:23;;;;;;;2.90;1.45;;;17.70;98.20;;;;;;5010537;28;20499;-81
2022/07/11 07:33:49;;;;;;;2.75;1.20;;;17.70;96.10;;;;;;5011018;28;20443;-81
2022/07/11 07:36:15;;;;;;;4.40;1.52;;;18.10;95.10;;;;;;5010805;28;20026;-83
2022/07/11 07:38:46;;;;;;;2.40;1.35;;;18.30;96.40;;;;;;5009771;28;20033;-82
2022/07/11 07:41:12;;;;;;;4.80;1.48;;;18.80;97.10;;;;;;5009661;28;20030;-82
2022/07/11 07:43:38;;;;;;;4.65;1.27;;;18.70;94.00;;;;;;5011000;28;20108;-82
2022/07/11 07:46:04;;;;;;;7.20;1.25;;;18.80;93.30;;;;;;5011219;28;20109;-80
2022/07/11 07:48:30;;;;;;;3.88;1.00;;;18.90;93.20;;;;;;5010857;28;20049;-80
2022/07/11 07:50:56;;;;;;;2.38;1.08;;;18.80;92.90;;;;;;5011121;28;20032;-81
2022/07/11 07:53:21;;;;;;;2.58;1.13;;;18.80;93.40;;;;;;5011348;28;20083;-82
2022/07/11 07:55:49;;;;;;;2.00;0.90;;;19.20;93.70;;;;;;5010701;28;20022;-82
2022/07/11 07:58:15;;;;;;;4.07;1.20;;;18.90;92.50;;;;;;5011280;28;20092;-82
2022/07/11 08:03:25;;;;;;;4.65;1.40;;;18.60;93.50;;;;;;5011113;28;20042;-81
2022/07/11 08:05:50;;;;;;;3.78;1.27;;;18.70;94.40;;;;;;5010884;28;20026;-82
2022/07/11 08:08:16;;;;;;;5.80;1.25;;;18.50;93.30;;;;;;5010641;28;20088;-81
2022/07/11 08:10:42;;;;;;;1.55;1.38;;;18.60;94.30;;;;;;5010407;28;20033;-81
2022/07/11 08:13:07;;;;;;;3.92;1.17;;;18.90;93.30;;;;;;5010735;28;20022;-82
2022/07/11 08:15:33;;;;;;;2.08;0.95;;;18.90;92.10;;;;;;5010493;28;20097;-82
2022/07/11 08:17:59;;;;;;;7.35;1.20;;;19.10;94.00;;;;;;5010608;28;20384;-80
2022/07/11 08:20:24;;;;;;;6.80;1.30;;;19.20;91.80;;;;;;5010567;28;20045;-82
2022/07/11 08:22:50;;;;;;;3.15;1.10;;;19.30;93.40;;;;;;5010628;28;20022;-82
2022/07/11 08:25:16;;;;;;;5.63;1.00;;;19.20;91.90;;;;;;5010608;28;20058;-81
2022/07/11 08:27:41;;;;;;;3.63;1.08;;;19.20;93.50;;;;;;5010507;28;20550;-79
2022/07/11 08:30:08;;;;;;;3.53;1.48;;;18.80;92.40;;;;;;5010537;28;20030;-81
2022/07/11 08:32:37;;;;;;;3.20;0.95;;;18.70;93.00;;;;;;5010524;28;20030;-82
2022/07/11 08:35:03;;;;;;;7.55;1.10;;;18.70;92.40;;;;;;5009240;28;20389;-82
2022/07/11 08:37:29;;;;;;;4.07;0.90;;;19.10;92.40;;;;;;5009210;28;20029;-80
2022/07/11 08:39:54;;;;;;;7.82;1.02;;;19.20;91.70;;;;;;5010528;28;20026;-81
2022/07/11 08:42:23;;;;;;;3.50;1.33;;;19.40;92.50;;;;;;5008711;28;20101;-81
2022/07/11 08:44:49;;;;;;;2.58;1.20;;;19.40;90.90;;;;;;5000244;28;20030;-82
2022/07/11 08:47:15;;;;;;;2.40;1.20;;;19.50;92.70;;;;;;4998981;28;20073;-81
2022/07/11 08:49:43;;;;;;;2.55;1.00;;;19.00;91.00;;;;;;5000867;28;20041;-81
2022/07/11 08:52:10;;;;;;;8.00;1.33;;;18.80;91.70;;;;;;5000132;28;20026;-81
2022/07/11 08:54:35;;;;;;;0.88;0.73;;;18.70;92.60;;;;;;5001073;28;20410;-81
2022/07/11 08:57:02;;;;;;;4.75;1.02;;;18.90;92.50;;;;;;4999969;28;20119;-81
2022/07/11 08:59:31;;;;;;;2.83;1.27;;;18.80;92.10;;;;;;5001774;28;20499;-82
2022/07/11 09:01:59;;;;;;;7.82;1.50;;;18.70;92.30;;;;;;5000856;28;20040;-83
2022/07/11 09:04:25;;;;;;;3.08;1.35;;;18.80;92.70;;;;;;5000572;28;20115;-81
2022/07/11 09:06:51;;;;;;;2.13;1.17;;;18.90;91.70;;;;;;5000998;28;20362;-81
2022/07/11 09:09:17;;;;;;;2.33;1.30;;;19.10;92.40;;;;;;4999799;28;20032;-80
2022/07/11 09:11:50;;;;;;;9.90;6.55;;;19.10;91.80;;;;;;5000424;28;20030;-81
2022/07/11 09:14:22;;;;;;;4.18;2.55;;;18.90;91.30;;;;;;5004212;28;20046;-82
2022/07/11 09:16:53;;;;;;;6.88;1.23;;;18.90;91.90;;;;;;5003145;28;20034;-80
2022/07/11 09:19:24;;;;;;;2.28;1.15;;;19.10;93.20;;;;;;5003401;28;20049;-82
2022/07/11 09:25:31;;;;;;;3.95;1.10;;;19.50;93.70;;;;;;5003632;28;20488;-81
2022/07/11 09:28:04;;;;;;;6.28;1.10;;;19.30;92.40;;;;;;4989719;28;20034;-81
2022/07/11 09:30:31;;;;;;;3.03;1.45;;;19.20;92.90;;;;;;5003448;28;20076;-82
2022/07/11 09:33:02;;;;;;;2.67;1.30;;;19.20;92.20;;;;;;5003714;28;20034;-81
2022/07/11 09:35:32;;;;;;;2.40;0.88;;;19.00;91.70;;;;;;5001975;28;20033;-80
2022/07/11 09:37:57;;;;;;;1.73;1.20;;;19.30;91.90;;;;;;5003030;28;20573;-81
2022/07/11 09:40:25;;;;;;;1.08;0.80;;;19.80;92.80;;;;;;5003487;28;20120;-82
2022/07/11 09:42:56;;;;;;;4.68;1.23;;;20.30;90.40;;;;;;5003925;28;20037;-82
2022/07/11 09:45:24;;;;;;;1.15;0.90;;;20.40;90.30;;;;;;5001360;28;20135;-81
2022/07/11 09:47:55;;;;;;;6.05;1.30;;;19.90;90.50;;;;;;5002401;28;20046;-80
2022/07/11 09:50:26;;;;;;;1.63;0.93;;;19.60;90.50;;;;;;5003297;28;20037;-83
2022/07/11 09:53:05;;;;;;;4.03;1.08;;;19.10;91.50;;;;;;5002941;28;20037;-80
2022/07/11 09:55:33;;;;;;;2.67;1.48;;;18.90;91.40;;;;;;5001052;28;20059;-82
2022/07/11 09:58:02;;;;;;;2.80;1.15;;;18.60;92.10;;;;;;5002735;28;20611;-81
2022/07/11 10:00:28;;;;;;;4.40;1.42;;;18.40;92.00;;;;;;5004897;28;20029;-81
2022/07/11 10:02:55;;;;;;;1.52;1.02;;;18.50;93.30;;;;;;5009027;28;20488;-82
2022/07/11 10:05:21;;;;;;;3.20;1.40;;;18.50;93.90;;;;;;5000890;28;20030;-79
2022/07/11 10:07:47;;;;;;;2.33;1.10;;;18.60;94.20;;;;;;5002327;28;20065;-80
2022/07/11 10:10:13;;;;;;;2.85;1.60;;;18.70;93.20;;;;;;5004263;28;20108;-81
2022/07/11 10:12:39;;;;;;;3.35;1.40;;;18.50;93.60;;;;;;5002439;28;20042;-82
2022/07/11 10:15:08;;;;;;;2.90;1.40;;;18.70;94.10;;;;;;5001781;28;20127;-81
2022/07/11 10:17:52;;;;;;;5.97;1.30;;;19.30;94.90;;;;;;5003093;28;20037;-81
2022/07/11 10:20:39;;;;;;;3.88;1.55;;;20.10;96.70;;;;;;5002952;28;20061;-81
2022/07/11 10:23:31;;;;;;;1.98;1.10;;;20.80;92.70;;;;;;5006415;28;20030;-82
2022/07/11 10:26:15;;;;;;;3.88;1.85;;;21.30;91.80;;;;;;5002773;28;20050;-83
2022/07/11 10:29:05;;;;;;;1.58;1.20;;;20.70;90.10;;;;;;5002360;28;20026;-82
2022/07/11 10:31:31;;;;;;;4.78;1.60;;;20.10;91.20;;;;;;5002000;28;20493;-82
2022/07/11 10:34:04;;;;;;;7.28;1.67;;;20.00;91.40;;;;;;5004273;28;20037;-80
2022/07/11 10:36:33;;;;;;;4.45;1.25;;;19.30;91.50;;;;;;5004646;28;20036;-81
2022/07/11 10:39:29;;;;;;;3.95;1.40;;;19.20;92.80;;;;;;5003643;28;20117;-80
2022/07/11 10:41:56;;;;;;;6.68;1.27;;;18.90;92.90;;;;;;5002447;28;20038;-80
2022/07/11 10:44:22;;;;;;;3.10;1.23;;;18.70;92.90;;;;;;5004305;28;20083;-79
2022/07/11 10:46:48;;;;;;;5.15;1.50;;;18.70;93.60;;;;;;5004451;28;20033;-80
2022/07/11 10:49:13;;;;;;;4.18;1.33;;;18.50;93.60;;;;;;5015225;28;20045;-80
2022/07/11 10:52:02;;;;;;;3.92;1.67;;;18.40;93.90;;;;;;5017253;28;20042;-82
2022/07/11 10:54:59;;;;;;;2.97;1.35;;;18.30;94.10;;;;;;5016756;28;20029;-79
2022/07/11 10:57:44;;;;;;;11.02;2.88;;;18.50;94.60;;;;;;5018203;28;20109;-83
2022/07/11 11:00:13;;;;;;;7.65;1.70;;;18.80;95.00;;;;;;5016543;28;20041;-82
2022/07/11 11:03:10;;;;;;;2.38;1.50;;;19.40;94.00;;;;;;5018231;28;20057;-82
2022/07/11 11:05:49;;;;;;;11.13;1.65;;;20.00;93.70;;;;;;5014817;28;20114;-83
2022/07/11 11:08:36;;;;;;;4.25;1.48;;;20.70;91.80;;;;;;5007510;28;20157;-81
2022/07/11 11:11:36;;;;;;;3.95;1.45;;;21.00;91.10;;;;;;5001607;28;20022;-81
2022/07/11 11:14:19;;;;;;;3.72;1.50;;;21.40;91.60;;;;;;5003586;28;20101;-81
2022/07/11 11:16:46;;;;;;;8.30;1.50;;;21.00;91.20;;;;;;5000834;28;20042;-83
2022/07/11 11:19:46;;;;;;;4.05;2.35;;;20.40;91.40;;;;;;5001982;28;20026;-80
2022/07/11 11:22:20;;;;;;;7.43;2.30;;;20.10;91.40;;;;;;5000710;28;20029;-81
2022/07/11 11:24:48;;;;;;;3.25;1.48;;;19.70;92.80;;;;;;4999643;28;20033;-81
2022/07/11 11:27:21;;;;;;;5.50;1.33;;;19.30;93.50;;;;;;5002533;28;20196;-82
2022/07/11 11:29:50;;;;;;;6.97;1.92;;;19.10;94.70;;;;;;5002231;28;20129;-82
2022/07/11 11:32:16;;;;;;;3.63;1.40;;;19.00;95.00;;;;;;5002684;28;20041;-81
2022/07/11 11:34:43;;;;;;;3.88;1.25;;;19.20;95.20;;;;;;5001162;28;20038;-81
2022/07/11 11:37:10;;;;;;;7.95;1.80;;;19.20;94.50;;;;;;5001657;28;20105;-83
2022/07/11 11:39:41;;;;;;;2.05;1.20;;;19.20;94.30;;;;;;5001658;28;20065;-83
2022/07/11 11:42:12;;;;;;;4.30;1.58;;;19.10;95.90;;;;;;5004064;28;20366;-82
2022/07/11 11:44:56;;;;;;;4.95;1.52;;;18.70;94.80;;;;;;5001448;28;20033;-82
2022/07/11 11:47:23;;;;;;;;;;;18.30;94.90;;;;;;4999806;28;20144;-81
2022/07/11 11:49:49;;;;;;;4.03;2.08;;;18.10;95.40;;;;;;5001195;28;20262;-82
2022/07/11 11:52:16;;;;;;;5.32;1.55;;;17.70;95.70;;;;;;5002237;28;20033;-82
2022/07/11 11:54:42;;;;;;;7.55;2.53;;;17.80;96.40;;;;;;5000819;28;20029;-81
2022/07/11 11:57:11;;;;;;;6.60;2.47;;;17.80;97.00;;;;;;5001244;28;20106;-81
2022/07/11 11:59:38;;;;;;;9.60;2.00;;;17.70;96.80;;;;;;5001863;28;20057;-82
2022/07/11 12:02:04;;;;;;;3.92;1.70;;;17.80;97.00;;;;;;5008032;28;20041;-81
2022/07/11 12:04:35;;;;;;;7.65;1.83;;;17.90;98.80;;;;;;5001178;28;20054;-81
2022/07/11 12:07:01;;;;;;;4.90;2.15;;;18.10;97.50;;;;;;5001135;28;20019;-81
2022/07/11 12:09:47;;;;;;;4.13;2.20;;;17.80;97.60;;;;;;5001127;28;20070;-80
2022/07/11 12:15:02;;;;;;;8.40;3.20;;;18.10;97.70;;;;;;5001215;28;20083;-82
2022/07/11 12:17:31;;;;;;;4.35;1.98;;;18.50;98.40;;;;;;5000005;28;20131;-82
2022/07/11 12:19:57;;;;;;;6.93;2.53;;;18.50;97.30;;;;;;5002318;28;20081;-81
2022/07/11 12:22:23;;;;;;;2.72;1.98;;;18.60;98.10;;;;;;5000734;28;20470;-83
2022/07/11 12:24:50;;;;;;;13.35;2.72;;;18.80;96.80;;;;;;5000763;28;20462;-80
2022/07/11 12:27:20;;;;;;;6.13;2.08;;;18.40;97.80;;;;;;5001959;28;20417;-82
2022/07/11 12:29:50;;;;;;;8.13;2.58;;;18.30;98.30;;;;;;5010284;28;20045;-83
2022/07/11 12:32:20;;;;;;;5.53;2.25;;;17.90;98.20;;;;;;5010525;28;20025;-82
2022/07/11 12:34:49;;;;;;;12.30;2.75;;;17.60;99.50;;;;;;5009242;28;20038;-81
2022/07/11 12:37:19;;;;;;;5.70;1.90;;;17.80;99.90;;;;;;5010469;28;20037;-82
2022/07/11 12:40:00;;;;;;;5.88;2.45;;;17.80;99.80;;;;;;5009164;28;20507;-81
2022/07/11 12:42:34;;;;;;;7.53;2.72;;;17.60;99.90;;;;;;5010462;28;20030;-82
2022/07/11 12:45:07;;;;;;;1.95;1.40;;;17.60;99.90;;;;;;5008672;28;20449;-81
2022/07/11 12:47:39;;;;;;;3.28;1.77;;;17.70;99.20;;;;;;5013548;28;20048;-80
2022/07/11 12:50:17;;;;;;;8.82;1.85;;;17.40;98.90;;;;;;5014821;28;20535;-81
2022/07/11 12:52:46;;;;;;;3.58;1.73;;;17.30;99.20;;;;;;5016253;28;20030;-81
2022/07/11 12:55:30;;;;;;;7.00;1.95;;;17.30;99.60;;;;;;5016394;28;20544;-81
2022/07/11 12:58:05;;;;;;;7.70;1.50;;;17.70;99.90;;;;;;5013858;28;20512;-80
2022/07/11 13:00:31;;;;;;;6.35;1.52;;;17.90;99.90;;;;;;5029169;28;20366;-82
2022/07/11 13:02:58;;;;;;;5.10;1.67;;;18.00;99.10;;;;;;5013993;28;20037;-81
2022/07/11 13:05:24;;;;;;;3.53;1.38;;;18.00;99.00;;;;;;5013936;28;20094;-82
2022/07/11 13:10:55;;;;;;;1.58;1.27;;;18.30;99.90;;;;;;5013375;28;20584;-82